Time;durP1;ratioP1;P1;durP2;ratioP2;P2;SDS_P1;SDS_P2;PMS_P1;PMS_P2;Temp;Humidity;BMP_temperature;BMP_pressure;BME280_temperature;BME280_humidity;BME280_pressure;Samples;Min_cycle;Max_cycle;Signal;HPM_P1;HPM_P2
2023/02/14 00:00:54;;;;;;;36.00;18.17;;;1.20;91.00;;;;;;5029498;28;20265;-75
2023/02/14 00:03:19;;;;;;;64.27;26.00;;;1.20;91.10;;;;;;5030092;28;20216;-75
2023/02/14 00:05:45;;;;;;;53.13;20.50;;;1.10;91.10;;;;;;5023846;28;20589;-76
2023/02/14 00:08:10;;;;;;;53.50;23.57;;;1.10;91.20;;;;;;5024071;28;20181;-76
2023/02/14 00:10:36;;;;;;;41.87;17.20;;;1.10;91.30;;;;;;5018163;28;20190;-76
2023/02/14 00:13:02;;;;;;;40.80;18.03;;;1.10;91.40;;;;;;5013518;28;20206;-76
2023/02/14 00:15:27;;;;;;;43.50;19.67;;;1.10;91.40;;;;;;5015232;28;20189;-75
2023/02/14 00:17:55;;;;;;;38.93;18.33;;;1.10;91.30;;;;;;5013448;28;20210;-76
2023/02/14 00:20:25;;;;;;;41.25;17.45;;;1.10;91.20;;;;;;5017356;28;20185;-75
2023/02/14 00:22:51;;;;;;;37.35;16.70;;;1.10;91.30;;;;;;5011302;28;20961;-75
2023/02/14 00:25:17;;;;;;;39.72;16.58;;;1.10;91.20;;;;;;5017153;28;20836;-76
2023/02/14 00:27:43;;;;;;;40.20;16.60;;;1.10;91.20;;;;;;5018342;28;20231;-76
2023/02/14 00:30:11;;;;;;;41.40;17.60;;;1.10;91.20;;;;;;5016859;28;20413;-75
2023/02/14 00:32:38;;;;;;;28.58;14.43;;;1.10;91.20;;;;;;5018496;28;20912;-73
2023/02/14 00:35:05;;;;;;;41.55;19.25;;;1.10;91.20;;;;;;5019103;28;20192;-76
2023/02/14 00:37:55;;;;;;;40.22;17.50;;;1.10;91.10;;;;;;5013371;28;20212;-75
2023/02/14 00:40:21;;;;;;;40.42;17.35;;;1.10;91.10;;;;;;5017354;28;20182;-76
2023/02/14 00:42:46;;;;;;;38.13;16.50;;;1.10;91.00;;;;;;5022361;28;20204;-77
2023/02/14 00:45:12;;;;;;;37.90;16.53;;;1.00;91.00;;;;;;5018307;28;20181;-76
2023/02/14 00:47:37;;;;;;;38.20;16.67;;;1.00;91.10;;;;;;5011038;28;20182;-76
2023/02/14 00:50:03;;;;;;;32.83;17.60;;;1.00;91.20;;;;;;5016740;28;20182;-75
2023/02/14 00:52:30;;;;;;;39.85;17.05;;;0.90;91.20;;;;;;5017703;28;20209;-76
2023/02/14 00:54:55;;;;;;;38.45;17.38;;;1.00;91.40;;;;;;5027947;28;20204;-74
2023/02/14 00:57:33;;;;;;;43.17;19.10;;;1.00;91.30;;;;;;5014138;28;20222;-76
2023/02/14 00:59:59;;;;;;;39.33;17.38;;;1.00;91.30;;;;;;5019297;28;20178;-75
2023/02/14 01:02:24;;;;;;;41.17;18.10;;;1.00;91.30;;;;;;5026292;28;20231;-76
2023/02/14 01:04:50;;;;;;;32.70;16.80;;;1.00;91.30;;;;;;5007002;28;20591;-76
2023/02/14 01:07:15;;;;;;;45.60;18.37;;;1.00;91.30;;;;;;5013621;28;20186;-76
2023/02/14 01:09:41;;;;;;;40.40;16.60;;;1.00;91.40;;;;;;5012521;28;20265;-76
2023/02/14 01:12:06;;;;;;;33.37;16.17;;;1.00;91.40;;;;;;5016038;28;20864;-76
2023/02/14 01:14:32;;;;;;;33.17;16.00;;;1.00;91.30;;;;;;5007566;28;20804;-75
2023/02/14 01:16:58;;;;;;;38.57;16.40;;;0.90;91.30;;;;;;5011729;28;20685;-76
2023/02/14 01:19:23;;;;;;;43.47;17.33;;;0.90;91.30;;;;;;5012817;28;20182;-74
2023/02/14 01:21:49;;;;;;;38.60;16.43;;;0.90;91.40;;;;;;5013416;28;20181;-74
2023/02/14 01:24:14;;;;;;;30.97;16.13;;;0.90;91.40;;;;;;5011610;28;20221;-73
2023/02/14 01:26:40;;;;;;;40.30;17.90;;;0.90;91.40;;;;;;5016768;28;20194;-73
2023/02/14 01:29:05;;;;;;;38.50;16.17;;;0.90;91.50;;;;;;5024415;28;20180;-74
2023/02/14 01:31:32;;;;;;;37.03;16.60;;;0.90;91.50;;;;;;5016384;28;20272;-73
2023/02/14 01:33:59;;;;;;;37.22;16.90;;;0.80;91.50;;;;;;5010241;28;20263;-74
2023/02/14 01:36:30;;;;;;;33.47;15.63;;;0.80;91.50;;;;;;5015310;28;20204;-74
2023/02/14 01:38:58;;;;;;;31.25;15.27;;;0.80;91.50;;;;;;5013598;28;20641;-75
2023/02/14 01:41:26;;;;;;;37.50;17.35;;;0.80;91.40;;;;;;5020692;28;20260;-76
2023/02/14 01:43:56;;;;;;;37.42;16.40;;;0.70;91.40;;;;;;5020455;28;20209;-76
2023/02/14 01:46:22;;;;;;;33.00;15.48;;;0.70;91.40;;;;;;5030147;28;20672;-75
2023/02/14 01:48:49;;;;;;;39.80;17.42;;;0.70;91.50;;;;;;5034598;28;20189;-75
2023/02/14 01:51:16;;;;;;;42.60;17.55;;;0.70;91.50;;;;;;5027923;28;20269;-74
2023/02/14 01:53:42;;;;;;;42.22;17.08;;;0.70;91.60;;;;;;5030393;28;20212;-73
2023/02/14 01:56:13;;;;;;;33.90;16.20;;;0.70;91.60;;;;;;5028391;28;20185;-73
2023/02/14 01:58:43;;;;;;;36.25;17.33;;;0.70;91.60;;;;;;5026263;28;20196;-74
2023/02/14 02:01:37;;;;;;;37.08;16.17;;;0.70;91.50;;;;;;5012625;28;20245;-73
2023/02/14 02:04:09;;;;;;;39.85;16.98;;;0.70;91.50;;;;;;5007028;28;20201;-74
2023/02/14 02:06:39;;;;;;;37.80;16.67;;;0.60;91.50;;;;;;5005018;28;20563;-76
2023/02/14 02:09:19;;;;;;;40.90;17.27;;;0.70;91.60;;;;;;5011854;28;20190;-75
2023/02/14 02:11:44;;;;;;;35.05;16.92;;;0.70;91.80;;;;;;5014685;28;20192;-74
2023/02/14 02:14:16;;;;;;;39.53;17.53;;;0.70;91.80;;;;;;5010290;28;20209;-75
2023/02/14 02:17:17;;;;;;;36.47;17.33;;;0.70;91.80;;;;;;5003900;28;20202;-75
2023/02/14 02:19:45;;;;;;;39.35;16.40;;;0.70;92.00;;;;;;5020946;28;20185;-75
2023/02/14 02:22:29;;;;;;;39.97;17.05;;;0.70;92.00;;;;;;5016548;28;20181;-76
2023/02/14 02:25:23;;;;;;;39.38;16.45;;;0.80;91.90;;;;;;5018218;28;20200;-75
2023/02/14 02:28:07;;;;;;;41.35;16.80;;;0.80;91.90;;;;;;5010813;28;20193;-75
2023/02/14 02:31:05;;;;;;;33.95;16.63;;;0.70;91.80;;;;;;5011186;28;20213;-77
2023/02/14 02:33:55;;;;;;;36.80;16.48;;;0.70;91.80;;;;;;4983796;28;20213;-75
2023/02/14 02:36:30;;;;;;;49.08;20.98;;;0.60;91.70;;;;;;5014652;28;20209;-76
2023/02/14 02:39:34;;;;;;;42.42;17.13;;;0.60;91.80;;;;;;5010789;28;20181;-75
2023/02/14 02:42:24;;;;;;;36.47;16.70;;;0.70;91.90;;;;;;5007980;28;20673;-75
2023/02/14 02:45:23;;;;;;;32.13;15.52;;;0.60;91.90;;;;;;5004176;28;20683;-75
2023/02/14 02:48:20;;;;;;;37.45;15.65;;;0.60;91.90;;;;;;5006877;28;20185;-75
2023/02/14 02:53:53;;;;;;;40.60;17.02;;;0.60;91.70;;;;;;5012643;28;20587;-75
2023/02/14 02:59:23;;;;;;;39.47;16.38;;;0.60;91.60;;;;;;5009211;28;20192;-75
2023/02/14 03:01:54;;;;;;;42.00;16.63;;;0.50;91.50;;;;;;5014803;28;20197;-75
2023/02/14 03:07:33;;;;;;;44.05;18.55;;;0.60;91.60;;;;;;5014470;28;20569;-74
2023/02/14 03:09:53;;;;;;;48.60;20.40;;;0.60;91.50;;;;;;5009749;28;20196;-75
2023/02/14 03:12:36;;;;;;;39.10;17.95;;;0.60;91.60;;;;;;5016404;28;20831;-75
2023/02/14 03:15:14;;;;;;;40.40;17.60;;;0.70;91.70;;;;;;5015814;28;20192;-75
2023/02/14 03:21:00;;;;;;;46.00;18.15;;;0.60;91.70;;;;;;5013350;28;20664;-76
2023/02/14 03:23:38;;;;;;;42.72;17.55;;;0.60;91.60;;;;;;5012221;28;20213;-74
2023/02/14 03:26:26;;;;;;;32.63;16.15;;;0.60;91.80;;;;;;5011913;28;20188;-75
2023/02/14 03:28:55;;;;;;;40.60;17.83;;;0.60;91.70;;;;;;5012842;28;20185;-74
2023/02/14 03:31:33;;;;;;;44.08;18.05;;;0.60;91.70;;;;;;5024123;28;20182;-75
2023/02/14 03:34:15;;;;;;;38.97;17.65;;;0.60;91.80;;;;;;5013431;28;20214;-74
2023/02/14 03:36:56;;;;;;;40.80;17.48;;;0.60;91.80;;;;;;5014091;28;20209;-74
2023/02/14 03:39:46;;;;;;;38.47;17.10;;;0.50;91.90;;;;;;5015835;28;20185;-75
2023/02/14 03:42:15;;;;;;;40.55;17.17;;;0.50;91.90;;;;;;5016374;28;20181;-76
2023/02/14 03:44:42;;;;;;;33.38;16.15;;;0.40;91.90;;;;;;5019396;28;20203;-73
2023/02/14 03:47:15;;;;;;;39.75;17.30;;;0.40;91.90;;;;;;5026872;28;20181;-76
2023/02/14 03:49:45;;;;;;;39.33;16.50;;;0.40;92.00;;;;;;5034346;28;20193;-75
2023/02/14 03:52:13;;;;;;;39.80;18.00;;;0.50;92.10;;;;;;5022510;28;20193;-75
2023/02/14 03:54:39;;;;;;;41.97;17.23;;;0.50;92.00;;;;;;5020675;28;20231;-75
2023/02/14 03:57:19;;;;;;;39.63;16.92;;;0.50;92.00;;;;;;5017886;28;20676;-74
2023/02/14 03:59:45;;;;;;;36.88;18.05;;;0.50;92.10;;;;;;5022018;28;20178;-77
2023/02/14 04:02:20;;;;;;;41.22;18.52;;;0.50;92.10;;;;;;5018365;28;20182;-77
2023/02/14 04:04:49;;;;;;;40.15;16.90;;;0.50;92.10;;;;;;5016115;28;20209;-76
2023/02/14 04:07:17;;;;;;;45.05;18.38;;;0.50;92.20;;;;;;5019588;28;20221;-76
2023/02/14 04:09:43;;;;;;;42.50;18.35;;;0.50;92.20;;;;;;5016701;28;20181;-75
2023/02/14 04:12:09;;;;;;;39.35;18.08;;;0.50;92.10;;;;;;5021083;28;20640;-76
2023/02/14 04:14:35;;;;;;;42.88;18.17;;;0.40;92.00;;;;;;5016740;28;20210;-76
2023/02/14 04:19:46;;;;;;;35.90;17.45;;;0.40;92.20;;;;;;5013883;28;20220;-74
2023/02/14 04:22:11;;;;;;;42.50;18.10;;;0.40;92.20;;;;;;5021793;28;20182;-74
2023/02/14 04:24:37;;;;;;;41.63;17.50;;;0.40;92.30;;;;;;5022515;28;20510;-73
2023/02/14 04:27:08;;;;;;;37.17;17.80;;;0.40;92.20;;;;;;5022401;28;20177;-74
2023/02/14 04:29:46;;;;;;;37.65;17.52;;;0.40;92.20;;;;;;5020119;28;20565;-74
2023/02/14 04:32:15;;;;;;;39.83;17.10;;;0.40;92.20;;;;;;5016478;28;20186;-75
2023/02/14 04:34:41;;;;;;;44.50;20.25;;;0.40;92.10;;;;;;5016745;28;20883;-75
2023/02/14 04:37:07;;;;;;;45.47;20.13;;;0.40;92.10;;;;;;5020057;28;20206;-75
2023/02/14 04:39:33;;;;;;;46.58;19.35;;;0.40;92.10;;;;;;5021048;28;20228;-76
2023/02/14 04:41:59;;;;;;;42.08;18.67;;;0.40;92.10;;;;;;5021667;28;20178;-76
2023/02/14 04:44:24;;;;;;;51.60;20.30;;;0.40;92.10;;;;;;5007789;28;20580;-75
2023/02/14 04:46:50;;;;;;;49.20;18.67;;;0.40;92.20;;;;;;5012326;28;20852;-74
2023/02/14 04:49:16;;;;;;;48.15;19.80;;;0.40;92.10;;;;;;5022360;28;20655;-75
2023/02/14 04:51:42;;;;;;;49.60;20.47;;;0.40;92.10;;;;;;5024399;28;20290;-76
2023/02/14 04:54:08;;;;;;;42.93;18.80;;;0.30;92.10;;;;;;5009277;28;20704;-75
2023/02/14 04:56:34;;;;;;;43.63;19.40;;;0.40;92.20;;;;;;5018243;28;20460;-73
2023/02/14 04:58:59;;;;;;;46.93;19.70;;;0.40;92.30;;;;;;5019750;28;20206;-74
2023/02/14 05:01:25;;;;;;;43.40;18.43;;;0.40;92.20;;;;;;5013146;28;20212;-75
2023/02/14 05:03:50;;;;;;;51.90;19.37;;;0.50;92.30;;;;;;5024034;28;20243;-74
2023/02/14 05:06:16;;;;;;;40.47;18.63;;;0.40;92.20;;;;;;5014751;28;20192;-75
2023/02/14 05:08:42;;;;;;;47.93;19.43;;;0.40;92.10;;;;;;5019776;28;20219;-75
2023/02/14 05:11:07;;;;;;;48.63;19.50;;;0.40;92.10;;;;;;5014755;28;20190;-75
2023/02/14 05:13:33;;;;;;;45.30;21.00;;;0.30;92.20;;;;;;5011808;28;20233;-75
2023/02/14 05:15:58;;;;;;;51.07;21.47;;;0.30;92.20;;;;;;5013807;28;20190;-75
2023/02/14 05:18:25;;;;;;;45.90;19.47;;;0.40;92.30;;;;;;5017042;28;20276;-75
2023/02/14 05:20:52;;;;;;;50.03;22.95;;;0.40;92.30;;;;;;5017013;28;21010;-74
2023/02/14 05:23:18;;;;;;;55.03;21.30;;;0.30;92.30;;;;;;5012209;28;20221;-75
2023/02/14 05:25:46;;;;;;;53.28;21.27;;;0.30;92.30;;;;;;5014707;28;20225;-75
2023/02/14 05:28:11;;;;;;;53.45;19.27;;;0.30;92.50;;;;;;5025689;28;20209;-73
2023/02/14 05:30:37;;;;;;;53.40;22.23;;;0.40;92.50;;;;;;5017105;28;20661;-74
2023/02/14 05:33:03;;;;;;;53.80;22.27;;;0.40;92.50;;;;;;5014409;28;20482;-75
2023/02/14 05:35:29;;;;;;;50.90;20.47;;;0.30;92.50;;;;;;5015326;28;20257;-73
2023/02/14 05:37:55;;;;;;;53.53;21.15;;;0.40;92.50;;;;;;5008183;28;20300;-74
2023/02/14 05:40:21;;;;;;;54.87;22.10;;;0.30;92.40;;;;;;5017448;28;20683;-76
2023/02/14 05:42:46;;;;;;;44.70;20.67;;;0.30;92.40;;;;;;5018425;28;20185;-77
2023/02/14 05:45:12;;;;;;;47.10;19.37;;;0.30;92.50;;;;;;5023058;28;20599;-77
2023/02/14 05:47:38;;;;;;;50.17;20.70;;;0.30;92.50;;;;;;5023947;28;20264;-78
2023/02/14 05:50:04;;;;;;;52.13;20.47;;;0.30;92.50;;;;;;5017551;28;20417;-79
2023/02/14 05:52:30;;;;;;;51.97;21.08;;;0.30;92.50;;;;;;5025250;28;20188;-78
2023/02/14 05:54:56;;;;;;;48.60;19.00;;;0.30;92.60;;;;;;5012769;28;20185;-78
2023/02/14 05:57:21;;;;;;;64.10;22.70;;;0.30;92.60;;;;;;5022966;28;20217;-77
2023/02/14 05:59:47;;;;;;;48.70;20.70;;;0.30;92.60;;;;;;5015648;28;20185;-78
2023/02/14 06:02:14;;;;;;;46.30;21.07;;;0.20;92.60;;;;;;5013268;28;20217;-78
2023/02/14 06:04:40;;;;;;;46.78;20.40;;;0.20;92.60;;;;;;5019619;28;20197;-78
2023/02/14 06:07:06;;;;;;;52.17;22.03;;;0.20;92.70;;;;;;5026163;28;20740;-80
2023/02/14 06:09:31;;;;;;;50.77;21.47;;;0.20;92.70;;;;;;5022047;28;20499;-78
2023/02/14 06:11:57;;;;;;;48.63;21.20;;;0.20;92.70;;;;;;5016946;28;20220;-78
2023/02/14 06:14:23;;;;;;;57.83;20.93;;;0.30;92.80;;;;;;5020796;28;20213;-76
2023/02/14 06:16:49;;;;;;;65.30;24.57;;;0.20;92.70;;;;;;5016861;28;20974;-76
2023/02/14 06:19:14;;;;;;;53.10;21.17;;;0.20;92.70;;;;;;5017518;28;20292;-75
2023/02/14 06:21:40;;;;;;;56.60;21.27;;;0.20;92.70;;;;;;5014428;28;20525;-76
2023/02/14 06:24:05;;;;;;;57.27;22.17;;;0.10;92.70;;;;;;5011739;28;20210;-75
2023/02/14 06:26:32;;;;;;;56.27;20.80;;;0.20;92.80;;;;;;5016339;28;20226;-73
2023/02/14 06:28:58;;;;;;;43.65;19.63;;;0.20;92.80;;;;;;5014286;28;20194;-76
2023/02/14 06:31:24;;;;;;;55.25;20.17;;;0.30;93.00;;;;;;5015872;28;20192;-77
2023/02/14 06:33:51;;;;;;;52.10;21.67;;;0.20;92.80;;;;;;5008038;28;20579;-76
2023/02/14 06:36:16;;;;;;;56.83;20.80;;;0.20;92.80;;;;;;5017876;28;20195;-77
2023/02/14 06:38:42;;;;;;;56.37;21.80;;;0.30;93.00;;;;;;5018786;28;20178;-76
2023/02/14 06:41:09;;;;;;;50.83;20.70;;;0.30;92.90;;;;;;5019029;28;20245;-75
2023/02/14 06:43:36;;;;;;;51.55;21.92;;;0.30;93.00;;;;;;5015087;28;20311;-76
2023/02/14 06:46:02;;;;;;;56.42;21.33;;;0.30;92.80;;;;;;5025951;28;20177;-78
2023/02/14 06:48:28;;;;;;;56.63;22.37;;;0.30;92.80;;;;;;5015411;28;20252;-76
2023/02/14 06:50:53;;;;;;;50.83;21.27;;;0.30;92.80;;;;;;5019283;28;20832;-76
2023/02/14 06:53:20;;;;;;;58.73;21.83;;;0.40;92.90;;;;;;5011621;28;20248;-76
2023/02/14 06:55:45;;;;;;;57.88;22.50;;;0.40;92.80;;;;;;5016511;28;20279;-75
2023/02/14 06:58:11;;;;;;;47.43;19.37;;;0.40;92.70;;;;;;5016550;28;20287;-76
2023/02/14 07:00:38;;;;;;;50.57;20.00;;;0.40;92.60;;;;;;5010642;28;20583;-77
2023/02/14 07:03:05;;;;;;;49.22;21.73;;;0.40;92.40;;;;;;5009516;28;20293;-76
2023/02/14 07:05:31;;;;;;;59.08;23.08;;;0.50;92.50;;;;;;5006657;28;20184;-77
2023/02/14 07:07:57;;;;;;;49.63;19.52;;;0.60;92.50;;;;;;5019576;28;20674;-76
2023/02/14 07:10:23;;;;;;;46.20;18.80;;;0.60;92.30;;;;;;5012020;28;20186;-75
2023/02/14 07:12:49;;;;;;;45.95;20.90;;;0.60;92.10;;;;;;5016415;28;20267;-76
2023/02/14 07:15:15;;;;;;;51.37;20.27;;;0.60;92.00;;;;;;5013926;28;20194;-75
2023/02/14 07:17:41;;;;;;;46.00;20.30;;;0.70;91.90;;;;;;5021199;28;20297;-76
2023/02/14 07:20:08;;;;;;;50.20;20.53;;;0.60;91.80;;;;;;5026946;28;20440;-76
2023/02/14 07:22:34;;;;;;;52.05;22.30;;;0.60;91.70;;;;;;5019674;28;20186;-75
2023/02/14 07:25:00;;;;;;;49.85;22.10;;;0.60;91.70;;;;;;5024300;28;20181;-75
2023/02/14 07:27:25;;;;;;;52.30;20.40;;;0.60;91.70;;;;;;5016875;28;20190;-76
2023/02/14 07:29:51;;;;;;;57.23;20.57;;;0.70;91.80;;;;;;5024824;28;20546;-75
2023/02/14 07:32:17;;;;;;;43.83;20.67;;;0.80;91.90;;;;;;5027495;28;20215;-76
2023/02/14 07:34:42;;;;;;;48.10;21.93;;;0.80;91.90;;;;;;5021892;28;20201;-75
2023/02/14 07:37:08;;;;;;;51.50;22.50;;;0.80;91.90;;;;;;5015727;28;20205;-76
2023/02/14 07:39:33;;;;;;;48.97;22.77;;;0.90;91.90;;;;;;5019713;28;20268;-76
2023/02/14 07:41:59;;;;;;;53.30;20.10;;;0.90;91.90;;;;;;5021869;28;20177;-75
2023/02/14 07:44:25;;;;;;;54.77;20.77;;;0.90;91.90;;;;;;5017860;28;20202;-74
2023/02/14 07:46:50;;;;;;;49.70;20.67;;;1.00;91.90;;;;;;5019280;28;20664;-77
2023/02/14 07:49:16;;;;;;;55.30;23.10;;;1.00;91.70;;;;;;5020346;28;20189;-77
2023/02/14 07:51:41;;;;;;;54.33;20.97;;;1.00;91.60;;;;;;5019087;28;20586;-78
2023/02/14 07:54:07;;;;;;;50.27;20.37;;;1.00;91.50;;;;;;5013301;28;20292;-77
2023/02/14 07:56:33;;;;;;;64.03;23.57;;;1.10;91.50;;;;;;5029521;28;20185;-77
2023/02/14 07:58:58;;;;;;;55.03;22.47;;;1.20;91.40;;;;;;5024045;28;20169;-76
2023/02/14 08:01:24;;;;;;;54.93;22.73;;;1.20;91.10;;;;;;5017453;28;20336;-76
2023/02/14 08:03:50;;;;;;;60.30;23.10;;;1.10;90.90;;;;;;5012772;28;20209;-77
2023/02/14 08:06:18;;;;;;;47.80;20.00;;;1.20;90.90;;;;;;5012953;28;20236;-76
2023/02/14 08:08:44;;;;;;;59.85;21.48;;;1.20;90.80;;;;;;5026145;28;20186;-76
2023/02/14 08:11:10;;;;;;;54.00;22.23;;;1.20;90.70;;;;;;5025150;28;20663;-75
2023/02/14 08:13:36;;;;;;;47.70;22.77;;;1.20;90.70;;;;;;5018070;28;20256;-76
2023/02/14 08:16:06;;;;;;;53.05;21.10;;;1.30;90.80;;;;;;5020317;28;20193;-75
2023/02/14 08:18:40;;;;;;;52.03;21.80;;;1.30;90.80;;;;;;5017769;28;20269;-75
2023/02/14 08:21:08;;;;;;;50.85;22.02;;;1.30;90.80;;;;;;5017870;28;20184;-75
2023/02/14 08:23:34;;;;;;;49.35;21.40;;;1.40;90.90;;;;;;5015007;28;20197;-74
2023/02/14 08:26:00;;;;;;;57.10;23.30;;;1.40;90.70;;;;;;5027802;28;20285;-76
2023/02/14 08:28:26;;;;;;;56.60;22.23;;;1.40;90.70;;;;;;5016855;28;20237;-76
2023/02/14 08:30:53;;;;;;;52.90;21.77;;;1.50;90.70;;;;;;5021710;28;20519;-76
2023/02/14 08:33:19;;;;;;;52.15;22.08;;;1.60;90.70;;;;;;5011251;28;20700;-76
2023/02/14 08:35:45;;;;;;;51.88;22.27;;;1.60;90.60;;;;;;5013729;28;20256;-76
2023/02/14 08:38:11;;;;;;;46.83;19.53;;;1.70;90.50;;;;;;5013085;28;20664;-76
2023/02/14 08:40:37;;;;;;;54.17;22.27;;;1.80;90.40;;;;;;5020323;28;20484;-75
2023/02/14 08:43:04;;;;;;;47.97;20.80;;;1.80;90.30;;;;;;5011260;28;20201;-77
2023/02/14 08:45:30;;;;;;;53.55;22.85;;;1.90;90.10;;;;;;5011819;28;20178;-75
2023/02/14 08:48:02;;;;;;;52.73;22.17;;;1.90;90.10;;;;;;5017980;28;20190;-75
2023/02/14 08:50:28;;;;;;;54.13;22.23;;;1.90;90.00;;;;;;5015582;28;20198;-75
2023/02/14 08:52:53;;;;;;;48.70;21.20;;;2.00;89.70;;;;;;5014434;28;20808;-76
2023/02/14 08:55:19;;;;;;;46.57;20.30;;;2.10;89.60;;;;;;5018688;28;20634;-76
2023/02/14 08:57:44;;;;;;;58.67;22.70;;;2.10;89.50;;;;;;5013252;28;20316;-76
2023/02/14 09:00:10;;;;;;;58.03;23.27;;;2.20;89.20;;;;;;5012167;28;20215;-77
2023/02/14 09:02:36;;;;;;;49.03;21.80;;;2.20;89.00;;;;;;5012390;28;20208;-76
2023/02/14 09:05:01;;;;;;;56.63;22.57;;;2.30;88.90;;;;;;5016601;28;20440;-75
2023/02/14 09:07:27;;;;;;;45.93;20.43;;;2.40;88.60;;;;;;5017748;28;20216;-77
2023/02/14 09:09:52;;;;;;;53.93;21.20;;;2.40;88.40;;;;;;5021219;28;20186;-76
2023/02/14 09:12:18;;;;;;;53.50;22.67;;;2.40;88.60;;;;;;5020159;28;20184;-77
2023/02/14 09:14:44;;;;;;;44.53;22.57;;;2.50;88.70;;;;;;5010407;28;20244;-77
2023/02/14 09:17:14;;;;;;;55.77;23.20;;;2.60;88.40;;;;;;5014624;28;20205;-76
2023/02/14 09:19:39;;;;;;;49.30;22.37;;;2.60;88.30;;;;;;5012968;28;20178;-77
2023/02/14 09:22:07;;;;;;;47.40;20.37;;;2.70;88.00;;;;;;5017986;28;20432;-77
2023/02/14 09:24:35;;;;;;;43.30;20.50;;;2.80;88.00;;;;;;5011074;28;20210;-78
2023/02/14 09:27:00;;;;;;;49.93;21.93;;;2.90;87.60;;;;;;5010560;28;20451;-75
2023/02/14 09:29:27;;;;;;;50.93;21.83;;;2.90;87.10;;;;;;5014155;28;20425;-76
2023/02/14 09:31:57;;;;;;;48.57;21.90;;;3.00;86.90;;;;;;5017319;28;20197;-75
2023/02/14 09:34:23;;;;;;;43.85;20.38;;;3.10;86.60;;;;;;5009519;28;20453;-76
2023/02/14 09:36:48;;;;;;;44.00;20.83;;;3.10;86.30;;;;;;5017305;28;20926;-77
2023/02/14 09:39:14;;;;;;;47.33;20.57;;;3.20;86.20;;;;;;5014072;28;20235;-76
2023/02/14 09:42:20;;;;;;;44.23;20.20;;;3.30;86.20;;;;;;5017961;28;20204;-78
2023/02/14 09:44:57;;;;;;;43.87;20.30;;;3.50;85.70;;;;;;5015025;28;20205;-76
2023/02/14 09:47:41;;;;;;;42.80;20.30;;;3.60;85.50;;;;;;5020083;28;20507;-77
2023/02/14 09:50:39;;;;;;;42.63;19.20;;;3.80;85.30;;;;;;5008419;28;20409;-75
2023/02/14 09:53:25;;;;;;;46.80;20.70;;;3.90;85.00;;;;;;5005078;28;20484;-77
2023/02/14 09:55:54;;;;;;;49.80;20.43;;;4.10;84.70;;;;;;5014129;28;20424;-76
2023/02/14 09:58:28;;;;;;;47.00;21.07;;;4.30;84.10;;;;;;5015891;28;20560;-77
2023/02/14 10:01:26;;;;;;;36.83;18.60;;;4.40;83.10;;;;;;5016619;28;20443;-76
2023/02/14 10:03:59;;;;;;;45.97;20.00;;;4.40;82.10;;;;;;5014831;28;20455;-75
2023/02/14 10:06:39;;;;;;;43.53;20.17;;;4.50;82.10;;;;;;5012070;28;20409;-76
2023/02/14 10:09:08;;;;;;;45.97;20.93;;;4.70;81.80;;;;;;5006652;28;20412;-76
2023/02/14 10:11:34;;;;;;;42.90;20.00;;;4.80;81.10;;;;;;5007809;28;20413;-76
2023/02/14 10:14:07;;;;;;;47.40;20.40;;;4.90;80.20;;;;;;5006147;28;20452;-76
2023/02/14 10:16:51;;;;;;;49.27;21.57;;;5.00;79.70;;;;;;5014292;28;20424;-76
2023/02/14 10:19:22;;;;;;;46.30;21.87;;;5.00;79.60;;;;;;5014510;28;20432;-77
2023/02/14 10:21:53;;;;;;;39.93;19.20;;;5.00;79.50;;;;;;5017156;28;20480;-75
2023/02/14 10:24:19;;;;;;;39.40;18.60;;;5.10;79.30;;;;;;5010715;28;20482;-76
2023/02/14 10:26:46;;;;;;;40.63;19.40;;;5.10;79.20;;;;;;5014239;28;20429;-76
2023/02/14 10:29:15;;;;;;;35.47;18.97;;;5.20;78.90;;;;;;5014439;28;20181;-75
2023/02/14 10:31:58;;;;;;;48.13;20.53;;;5.20;78.60;;;;;;5020570;28;20432;-76
2023/02/14 10:34:46;;;;;;;35.83;17.63;;;5.30;78.30;;;;;;5031602;28;20459;-77
2023/02/14 10:37:31;;;;;;;36.33;19.13;;;5.30;78.40;;;;;;5033173;28;20494;-75
2023/02/14 10:40:05;;;;;;;48.40;18.77;;;5.50;78.40;;;;;;5036165;28;20508;-77
2023/02/14 10:43:11;;;;;;;42.70;20.30;;;5.60;77.70;;;;;;5030171;28;20506;-75
2023/02/14 10:46:23;;;;;;;43.00;20.30;;;5.90;76.70;;;;;;5017753;28;20851;-76
2023/02/14 10:49:07;;;;;;;42.90;20.00;;;6.30;76.10;;;;;;5016950;28;20570;-74
2023/02/14 10:51:48;;;;;;;34.60;17.43;;;6.80;74.50;;;;;;5028893;28;20456;-75
2023/02/14 10:54:27;;;;;;;37.63;17.93;;;7.30;73.70;;;;;;5024646;28;20455;-75
2023/02/14 10:57:03;;;;;;;37.43;18.23;;;7.80;72.10;;;;;;5025731;28;20501;-76
2023/02/14 10:59:43;;;;;;;39.40;20.80;;;7.90;71.00;;;;;;5025360;28;20778;-75
2023/02/14 11:02:13;;;;;;;34.50;17.83;;;8.20;70.80;;;;;;5024799;28;20425;-75
2023/02/14 11:04:40;;;;;;;32.50;17.47;;;8.30;69.70;;;;;;5020366;28;20652;-77
2023/02/14 11:07:15;;;;;;;34.30;17.70;;;8.20;69.90;;;;;;5025935;28;20433;-75
2023/02/14 11:09:40;;;;;;;38.17;18.47;;;8.20;69.90;;;;;;5024336;28;20416;-75
2023/02/14 11:12:07;;;;;;;31.40;16.73;;;8.40;69.70;;;;;;5028124;28;20436;-76
2023/02/14 11:14:35;;;;;;;39.20;18.00;;;8.40;69.70;;;;;;5025124;28;20215;-76
2023/02/14 11:17:30;;;;;;;36.57;16.77;;;8.40;69.80;;;;;;5023771;28;20520;-78
2023/02/14 11:20:01;;;;;;;38.23;17.83;;;8.50;69.80;;;;;;5028897;28;20425;-75
2023/02/14 11:22:32;;;;;;;37.60;17.27;;;8.60;69.70;;;;;;5018805;28;20417;-76
2023/02/14 11:25:20;;;;;;;34.67;17.50;;;8.60;69.50;;;;;;5027611;28;20436;-73
2023/02/14 11:27:49;;;;;;;43.57;18.63;;;8.70;69.50;;;;;;5025585;28;20519;-76
2023/02/14 11:30:26;;;;;;;31.97;18.00;;;9.20;69.90;;;;;;5031917;28;20427;-76
2023/02/14 11:32:55;;;;;;;39.40;18.40;;;9.60;68.00;;;;;;5037828;28;20439;-76
2023/02/14 11:35:25;;;;;;;32.63;17.00;;;9.80;67.20;;;;;;5033320;28;20452;-74
2023/02/14 11:37:55;;;;;;;41.20;17.30;;;9.90;66.60;;;;;;5035281;28;20475;-76
2023/02/14 11:40:33;;;;;;;31.00;17.83;;;9.80;66.70;;;;;;5026176;28;20897;-76
2023/02/14 11:43:28;;;;;;;36.70;17.07;;;9.90;66.60;;;;;;5021198;28;20453;-74
2023/02/14 11:46:13;;;;;;;36.13;17.27;;;10.00;66.30;;;;;;5017185;28;20444;-76
2023/02/14 11:48:55;;;;;;;31.17;17.00;;;10.10;66.10;;;;;;5028185;28;20416;-74
2023/02/14 11:51:31;;;;;;;35.87;17.43;;;10.00;65.80;;;;;;5029158;28;20455;-76
2023/02/14 11:54:03;;;;;;;29.90;17.43;;;10.00;66.10;;;;;;5023615;28;20451;-76
2023/02/14 11:57:11;;;;;;;28.53;16.43;;;9.90;66.10;;;;;;5022835;28;20417;-74
2023/02/14 11:59:41;;;;;;;34.60;17.53;;;10.00;66.30;;;;;;4990038;28;20433;-74
2023/02/14 12:02:23;;;;;;;38.33;17.97;;;10.00;66.10;;;;;;5027185;28;20520;-74
2023/02/14 12:04:53;;;;;;;30.77;17.07;;;9.90;66.30;;;;;;5023879;28;20526;-74
2023/02/14 12:07:24;;;;;;;33.20;17.03;;;9.90;66.70;;;;;;5020490;28;20434;-74
2023/02/14 12:10:07;;;;;;;33.33;16.93;;;9.80;66.70;;;;;;5016805;28;20847;-75
2023/02/14 12:12:34;;;;;;;37.43;18.50;;;9.80;66.90;;;;;;5007328;28;20424;-74
2023/02/14 12:15:23;;;;;;;30.80;16.87;;;9.70;66.90;;;;;;5026562;28;20443;-75
2023/02/14 12:17:57;;;;;;;28.70;15.17;;;9.80;66.60;;;;;;5016544;28;20588;-75
2023/02/14 12:20:39;;;;;;;27.97;14.80;;;9.90;66.70;;;;;;5036469;28;20424;-74
2023/02/14 12:23:12;;;;;;;28.03;16.03;;;10.10;66.10;;;;;;5027994;28;20467;-76
2023/02/14 12:25:51;;;;;;;28.37;15.50;;;10.20;65.70;;;;;;5025242;28;20404;-74
2023/02/14 12:28:29;;;;;;;35.30;20.57;;;10.30;65.40;;;;;;5028390;28;20454;-74
2023/02/14 12:30:55;;;;;;;28.30;15.83;;;10.50;65.30;;;;;;5020908;28;20421;-74
2023/02/14 12:33:23;;;;;;;32.23;16.93;;;10.80;64.10;;;;;;5027087;28;20491;-74
2023/02/14 12:36:32;;;;;;;31.70;16.77;;;10.70;63.40;;;;;;5023771;28;20827;-74
2023/02/14 12:39:26;;;;;;;28.60;15.90;;;10.80;63.90;;;;;;5017878;28;20419;-74
2023/02/14 12:42:06;;;;;;;29.73;16.43;;;11.00;63.40;;;;;;5022126;28;20428;-75
2023/02/14 12:44:53;;;;;;;30.30;16.93;;;11.00;63.20;;;;;;5026527;28;20444;-74
2023/02/14 12:47:28;;;;;;;29.30;16.87;;;11.30;62.60;;;;;;5034159;28;20427;-76
2023/02/14 12:50:15;;;;;;;32.70;16.37;;;11.50;61.70;;;;;;5035290;28;20404;-75
2023/02/14 12:53:02;;;;;;;29.43;16.83;;;11.60;61.30;;;;;;5013419;28;20445;-75
2023/02/14 12:55:57;;;;;;;31.33;16.80;;;11.60;61.60;;;;;;5021535;28;20807;-75
2023/02/14 12:58:29;;;;;;;31.50;18.13;;;11.60;61.20;;;;;;5015882;28;20555;-76
2023/02/14 13:01:26;;;;;;;37.07;17.40;;;11.30;62.00;;;;;;5016248;28;20433;-75
2023/02/14 13:04:15;;;;;;;34.97;17.10;;;11.10;63.10;;;;;;5017166;28;20460;-76
2023/02/14 13:07:07;;;;;;;33.40;16.80;;;11.10;63.80;;;;;;5010032;28;20421;-75
2023/02/14 13:09:58;;;;;;;38.83;18.03;;;11.40;62.20;;;;;;5010182;28;20421;-75
2023/02/14 13:12:36;;;;;;;36.60;16.80;;;11.30;62.20;;;;;;5020184;28;20959;-76